Time;durP1;ratioP1;P1;durP2;ratioP2;P2;SDS_P1;SDS_P2;PMS_P1;PMS_P2;Temp;Humidity;BMP_temperature;BMP_pressure;BME280_temperature;BME280_humidity;BME280_pressure;Samples;Min_cycle;Max_cycle;Signal;HPM_P1;HPM_P2
2022/10/14 00:01:48;;;;;;;2.80;2.20;;;;;;;19.03;53.14;101499.97;5124950;28;20062;-61
2022/10/14 00:04:14;;;;;;;2.22;2.00;;;;;;;19.06;53.33;101505.06;5136108;27;20095;-61
2022/10/14 00:06:39;;;;;;;3.33;2.40;;;;;;;18.86;53.23;101470.22;5147088;27;20031;-61
2022/10/14 00:09:08;;;;;;;2.20;2.00;;;;;;;19.04;53.45;101501.69;5146588;27;20151;-61
2022/10/14 00:11:34;;;;;;;;;;;;;;;19.03;53.31;101498.16;5147044;27;20502;-61
2022/10/14 00:14:05;;;;;;;2.50;2.30;;;;;;;19.00;53.15;101487.66;5134784;27;19908;-62
2022/10/14 00:16:33;;;;;;;2.67;2.10;;;;;;;19.02;53.59;101495.59;5126025;27;20039;-59
2022/10/14 00:18:58;;;;;;;2.75;2.17;;;;;;;19.00;53.21;101490.38;5125990;28;20020;-62
2022/10/14 00:21:24;;;;;;;2.95;2.28;;;;;;;19.00;53.19;101481.44;5125348;28;20039;-61
2022/10/14 00:23:49;;;;;;;3.05;2.10;;;;;;;19.00;53.49;101484.13;5139415;27;20023;-60
2022/10/14 00:26:21;;;;;;;2.40;2.20;;;;;;;18.98;53.17;101485.09;5146507;27;20027;-61
2022/10/14 00:28:46;;;;;;;2.30;2.10;;;;;;;18.99;53.65;101488.69;5146459;27;20035;-61
2022/10/14 00:31:12;;;;;;;2.60;2.40;;;;;;;18.96;53.21;101476.34;5146323;27;20050;-61
2022/10/14 00:33:37;;;;;;;2.88;2.40;;;;;;;18.97;53.38;101478.03;5135831;27;20713;-61
2022/10/14 00:36:04;;;;;;;2.72;2.50;;;;;;;18.86;53.23;101469.34;5125767;28;20038;-61
2022/10/14 00:38:29;;;;;;;2.90;2.20;;;;;;;18.97;53.34;101487.97;5125778;28;20030;-61
2022/10/14 00:40:55;;;;;;;2.67;2.47;;;;;;;18.97;53.56;101479.88;5139688;27;20027;-61
2022/10/14 00:43:22;;;;;;;2.67;2.47;;;;;;;18.97;53.29;101478.03;5146003;27;20016;-61
2022/10/14 00:45:47;;;;;;;2.90;2.55;;;;;;;18.96;53.56;101473.66;5141250;27;20016;-61
2022/10/14 00:48:13;;;;;;;2.50;2.30;;;;;;;18.95;53.22;101466.56;5125736;28;20032;-61
2022/10/14 00:50:41;;;;;;;3.95;2.45;;;;;;;18.95;53.42;101469.28;5123910;28;20031;-61
2022/10/14 00:53:07;;;;;;;2.80;2.30;;;;;;;18.95;53.37;101463.88;5125335;28;20027;-61
2022/10/14 00:55:33;;;;;;;2.38;2.10;;;;;;;18.95;53.37;101461.19;5124957;28;20044;-61
2022/10/14 00:57:58;;;;;;;3.80;2.42;;;;;;;18.94;53.14;101462.16;5125158;28;20174;-61
2022/10/14 01:00:24;;;;;;;2.70;2.20;;;;;;;18.95;53.18;101457.66;5125108;28;20168;-61
2022/10/14 01:02:49;;;;;;;2.78;2.50;;;;;;;18.94;53.08;101455.94;5125521;28;20073;-60
2022/10/14 01:05:16;;;;;;;2.22;1.98;;;;;;;18.93;53.27;101452.41;5124873;28;20034;-61
2022/10/14 01:08:02;;;;;;;3.38;2.53;;;;;;;18.82;53.27;101441.00;5142109;27;20054;-61
2022/10/14 01:10:41;;;;;;;2.92;2.50;;;;;;;18.93;53.04;101451.56;5144184;27;20027;-62
2022/10/14 01:13:15;;;;;;;2.60;2.20;;;;;;;18.93;53.31;101468.56;5144487;27;20015;-62
2022/10/14 01:15:51;;;;;;;2.42;2.22;;;;;;;18.91;53.07;101465.19;5139337;27;20751;-61
2022/10/14 01:18:29;;;;;;;3.47;2.40;;;;;;;18.92;53.27;101464.19;5106624;28;20028;-62
2022/10/14 01:21:03;;;;;;;2.53;2.20;;;;;;;18.91;53.14;101454.41;5124082;28;20038;-61
2022/10/14 01:23:59;;;;;;;2.35;1.98;;;;;;;18.90;53.28;101457.25;5124503;28;20032;-62
2022/10/14 01:26:38;;;;;;;2.30;2.10;;;;;;;18.90;53.07;101458.13;5124522;28;20023;-61
2022/10/14 01:29:28;;;;;;;3.35;2.92;;;;;;;18.89;53.01;101467.19;5123972;28;20036;-62
2022/10/14 01:32:00;;;;;;;2.15;1.95;;;;;;;18.85;53.10;101454.19;5123368;28;20031;-61
2022/10/14 01:34:30;;;;;;;2.67;2.47;;;;;;;18.72;53.11;101438.41;5122821;28;20083;-62
2022/10/14 01:37:03;;;;;;;2.90;2.70;;;;;;;18.89;53.22;101471.72;5123123;28;20030;-61
2022/10/14 01:39:32;;;;;;;2.65;2.22;;;;;;;18.82;53.38;101458.03;5141397;27;20037;-61
2022/10/14 01:42:04;;;;;;;2.67;2.47;;;;;;;18.88;53.18;101462.81;5143159;27;20023;-61
2022/10/14 01:44:31;;;;;;;2.40;2.20;;;;;;;18.88;53.22;101453.88;5143289;27;20031;-61
2022/10/14 01:46:58;;;;;;;2.10;1.90;;;;;;;18.88;53.41;101453.88;5126371;27;20046;-61
2022/10/14 01:49:31;;;;;;;2.30;2.10;;;;;;;18.87;53.02;101453.03;5122850;28;20035;-61
2022/10/14 01:52:08;;;;;;;3.15;2.85;;;;;;;18.86;53.05;101445.97;5123684;28;20031;-61
2022/10/14 01:54:37;;;;;;;2.38;2.03;;;;;;;18.87;53.30;101441.41;5123306;28;20071;-62
2022/10/14 01:57:05;;;;;;;2.25;2.05;;;;;;;18.86;53.11;101437.00;5122848;28;20023;-61
2022/10/14 01:59:32;;;;;;;3.05;2.10;;;;;;;18.86;53.41;101434.31;5122740;28;20029;-61
2022/10/14 02:01:57;;;;;;;2.20;2.00;;;;;;;18.85;53.25;101427.22;5122903;28;20051;-61
2022/10/14 02:04:22;;;;;;;2.67;2.47;;;;;;;18.85;52.91;101433.47;5129032;27;20502;-62
2022/10/14 02:07:18;;;;;;;2.20;2.00;;;;;;;18.84;52.86;101431.78;5144834;27;20022;-61
2022/10/14 02:09:47;;;;;;;2.45;2.25;;;;;;;18.85;53.03;101429.94;5142762;27;20058;-61
2022/10/14 02:12:34;;;;;;;2.83;2.53;;;;;;;18.83;53.26;101432.78;5143762;27;20023;-61
2022/10/14 02:15:12;;;;;;;2.97;2.30;;;;;;;18.84;53.46;101420.16;5143275;27;20022;-61
2022/10/14 02:17:47;;;;;;;2.03;1.83;;;;;;;18.83;53.30;101421.16;5143640;28;20115;-61
2022/10/14 02:20:15;;;;;;;2.25;2.00;;;;;;;18.83;53.00;101429.25;5142993;28;20084;-61
2022/10/14 02:23:18;;;;;;;2.28;2.08;;;;;;;18.82;53.17;101430.22;5143282;28;20056;-61
2022/10/14 02:25:44;;;;;;;1.98;1.77;;;;;;;18.81;52.96;101428.53;5100693;28;20108;-61
2022/10/14 02:28:11;;;;;;;2.10;1.90;;;;;;;18.70;53.13;101418.88;5144523;27;20027;-61
2022/10/14 02:30:43;;;;;;;2.35;2.15;;;;;;;18.81;53.07;101439.31;5142853;28;20029;-61
2022/10/14 02:33:08;;;;;;;2.05;1.88;;;;;;;18.78;53.23;101434.28;5143405;28;20023;-61
2022/10/14 02:35:35;;;;;;;2.55;2.33;;;;;;;18.72;53.14;101427.63;5141938;28;20028;-60
2022/10/14 02:38:01;;;;;;;2.03;1.80;;;;;;;18.79;53.06;101444.88;5143159;28;20020;-61
2022/10/14 02:40:38;;;;;;;2.20;2.00;;;;;;;18.79;53.22;101444.88;5133822;28;20024;-62
2022/10/14 02:43:06;;;;;;;1.98;1.77;;;;;;;18.79;53.12;101439.50;5124315;28;20052;-62
2022/10/14 02:45:32;;;;;;;2.33;2.13;;;;;;;18.78;52.94;101432.41;5127815;28;20030;-62
2022/10/14 02:47:58;;;;;;;1.85;1.75;;;;;;;18.78;53.00;101435.09;5127990;28;20470;-62
2022/10/14 02:50:23;;;;;;;2.40;1.88;;;;;;;18.78;53.16;101436.97;5127496;28;20043;-62
2022/10/14 02:52:48;;;;;;;2.10;1.90;;;;;;;18.78;53.42;101445.03;5127720;28;20070;-61
2022/10/14 02:55:14;;;;;;;2.15;1.92;;;;;;;18.78;53.20;101428.88;5127231;28;20039;-63
2022/10/14 02:57:39;;;;;;;2.58;2.20;;;;;;;18.37;53.32;101363.84;5127564;28;20384;-60
2022/10/14 03:00:05;;;;;;;2.50;2.00;;;;;;;18.76;53.10;101426.31;5127394;28;20062;-61
2022/10/14 03:02:30;;;;;;;2.35;2.15;;;;;;;18.75;52.89;101427.31;5127741;28;20027;-61
2022/10/14 03:04:57;;;;;;;2.00;1.80;;;;;;;18.75;53.11;101421.94;5138476;27;20368;-61
2022/10/14 03:07:22;;;;;;;2.05;1.85;;;;;;;18.75;53.18;101415.72;5147952;27;20023;-61
2022/10/14 03:09:48;;;;;;;2.03;1.90;;;;;;;18.63;52.91;101391.66;5147720;27;20100;-59
2022/10/14 03:12:13;;;;;;;1.90;1.75;;;;;;;18.73;52.95;101405.94;5148228;27;20369;-61
2022/10/14 03:14:38;;;;;;;1.70;1.60;;;;;;;18.72;53.16;101389.91;5147733;27;20042;-61
2022/10/14 03:17:04;;;;;;;2.03;1.77;;;;;;;18.72;53.33;101393.44;5148038;27;20049;-60
2022/10/14 03:19:29;;;;;;;2.25;2.05;;;;;;;18.72;53.05;101392.59;5147869;27;20054;-61
2022/10/14 03:21:54;;;;;;;2.45;2.25;;;;;;;18.64;52.92;101377.19;5147812;27;20033;-62
2022/10/14 03:24:19;;;;;;;2.30;2.10;;;;;;;18.67;53.11;101374.19;5147487;27;20015;-62
2022/10/14 03:26:44;;;;;;;1.80;1.70;;;;;;;18.72;52.74;101398.00;5147637;27;20031;-62
2022/10/14 03:29:10;;;;;;;2.08;1.88;;;;;;;18.70;52.88;101397.31;5147590;27;20034;-62
2022/10/14 03:31:35;;;;;;;2.15;1.95;;;;;;;18.69;52.88;101380.31;5147458;27;20019;-61
2022/10/14 03:34:01;;;;;;;2.33;1.90;;;;;;;18.69;53.08;101385.72;5146547;27;20054;-62
2022/10/14 03:36:26;;;;;;;2.03;1.85;;;;;;;18.69;53.31;101376.72;5138896;27;20031;-62
2022/10/14 03:38:51;;;;;;;2.35;2.15;;;;;;;18.68;52.89;101370.50;5126610;28;20031;-62
2022/10/14 03:41:16;;;;;;;1.88;1.73;;;;;;;18.68;52.95;101372.34;5126532;28;20122;-62
2022/10/14 03:43:41;;;;;;;2.08;1.85;;;;;;;18.67;52.74;101368.81;5126638;28;20024;-62
2022/10/14 03:46:07;;;;;;;2.17;1.88;;;;;;;18.61;52.83;101352.44;5130660;27;20037;-63
2022/10/14 03:48:32;;;;;;;2.50;2.30;;;;;;;18.63;52.81;101358.50;5124228;28;20035;-62
2022/10/14 03:50:57;;;;;;;2.17;1.98;;;;;;;18.66;52.86;101356.34;5126083;28;20628;-63
2022/10/14 03:53:22;;;;;;;2.20;2.00;;;;;;;18.66;53.02;101360.91;5126042;28;20031;-63
2022/10/14 03:55:48;;;;;;;2.00;1.90;;;;;;;18.66;53.17;101358.19;5125332;28;20047;-62
2022/10/14 03:58:13;;;;;;;2.05;1.77;;;;;;;18.66;53.09;101350.13;5125999;28;20087;-62
2022/10/14 04:00:38;;;;;;;2.03;1.83;;;;;;;18.64;52.96;101347.56;5126090;28;20035;-62
2022/10/14 04:03:04;;;;;;;2.10;1.90;;;;;;;18.65;52.82;101346.59;5126066;28;20442;-61
2022/10/14 04:05:32;;;;;;;2.10;1.90;;;;;;;18.63;52.98;101339.66;5126344;28;20030;-61
2022/10/14 04:08:01;;;;;;;2.92;2.42;;;;;;;18.64;53.19;101344.03;5145571;27;20091;-61
2022/10/14 04:10:26;;;;;;;2.03;1.83;;;;;;;18.56;52.92;101330.50;5146677;27;20521;-61
2022/10/14 04:12:52;;;;;;;2.47;2.10;;;;;;;18.63;53.11;101348.56;5135521;27;20028;-61
2022/10/14 04:15:17;;;;;;;2.28;2.08;;;;;;;18.62;53.14;101332.59;5146841;27;20471;-61
2022/10/14 04:17:43;;;;;;;2.05;1.92;;;;;;;18.63;52.91;101336.97;5146225;27;20065;-61
2022/10/14 04:20:08;;;;;;;2.00;1.80;;;;;;;18.63;53.09;101331.56;5146319;27;20035;-61
2022/10/14 04:22:34;;;;;;;2.35;2.15;;;;;;;18.51;53.14;101306.72;5145677;27;20058;-61
2022/10/14 04:24:59;;;;;;;2.42;2.10;;;;;;;18.62;52.75;101330.72;5142569;27;20027;-61
2022/10/14 04:27:24;;;;;;;1.77;1.67;;;;;;;18.59;53.14;101336.41;5138820;27;20046;-61
2022/10/14 04:29:49;;;;;;;2.25;2.05;;;;;;;18.59;52.94;101327.50;5134574;27;20480;-61
2022/10/14 04:32:15;;;;;;;2.00;1.80;;;;;;;18.62;52.88;101335.28;5145876;27;20055;-61
2022/10/14 04:34:40;;;;;;;2.08;1.88;;;;;;;18.62;52.95;101338.81;5146399;27;20027;-61
2022/10/14 04:37:05;;;;;;;2.78;1.98;;;;;;;18.62;53.18;101341.50;5143677;27;20051;-61
2022/10/14 04:39:30;;;;;;;2.40;2.20;;;;;;;18.62;53.02;101336.13;5131102;27;20496;-61
2022/10/14 04:41:56;;;;;;;2.33;2.10;;;;;;;18.62;53.02;101336.13;5125325;28;20024;-60
2022/10/14 04:44:21;;;;;;;2.72;1.90;;;;;;;18.62;53.13;101329.88;5124651;28;20047;-61
2022/10/14 04:46:46;;;;;;;3.53;2.05;;;;;;;18.62;53.05;101324.50;5124607;28;20020;-61
2022/10/14 04:49:11;;;;;;;1.88;1.75;;;;;;;18.61;53.25;101323.66;5125647;28;20055;-61
2022/10/14 04:51:37;;;;;;;2.10;1.90;;;;;;;18.62;52.92;101317.25;5134568;27;20028;-61
2022/10/14 04:54:02;;;;;;;2.28;1.83;;;;;;;18.62;53.42;101313.72;5134623;27;20035;-61
2022/10/14 04:56:28;;;;;;;1.95;1.85;;;;;;;18.62;53.41;101313.72;5135744;27;20035;-61
2022/10/14 04:58:53;;;;;;;2.00;1.80;;;;;;;18.63;53.15;101310.03;5149356;27;20058;-61
2022/10/14 05:01:18;;;;;;;2.30;2.10;;;;;;;18.53;53.47;101288.59;5134344;27;20050;-61
2022/10/14 05:03:44;;;;;;;2.45;2.03;;;;;;;18.62;53.27;101298.41;5140230;27;20083;-61
2022/10/14 05:06:09;;;;;;;2.35;2.00;;;;;;;18.62;53.24;101303.81;5132910;27;20027;-61
2022/10/14 05:08:35;;;;;;;2.83;2.13;;;;;;;18.62;53.41;101295.72;5139041;27;20046;-60
2022/10/14 05:11:01;;;;;;;2.50;2.03;;;;;;;18.63;53.32;101292.00;5141727;27;20048;-60
2022/10/14 05:13:27;;;;;;;2.08;1.88;;;;;;;18.61;53.65;101291.34;5128334;27;20027;-60
2022/10/14 05:15:53;;;;;;;1.92;1.80;;;;;;;18.61;53.55;101285.13;5125009;28;20024;-60
2022/10/14 05:18:18;;;;;;;1.75;1.65;;;;;;;18.51;53.86;101258.25;5142236;27;20031;-60
2022/10/14 05:20:43;;;;;;;2.08;1.88;;;;;;;18.63;53.55;101283.09;5145266;27;20027;-59
2022/10/14 05:23:08;;;;;;;2.17;1.98;;;;;;;18.63;53.73;101275.84;5144844;27;20031;-60
2022/10/14 05:25:34;;;;;;;2.20;1.92;;;;;;;18.62;53.38;101271.47;5145639;27;20058;-61
2022/10/14 05:27:59;;;;;;;2.15;1.95;;;;;;;18.61;53.30;101263.56;5145158;27;20038;-60
2022/10/14 05:30:25;;;;;;;1.80;1.70;;;;;;;18.52;53.38;101245.63;5132320;27;20054;-61
2022/10/14 05:32:50;;;;;;;2.00;1.80;;;;;;;18.55;53.53;101248.03;5133172;27;20018;-60
2022/10/14 05:35:16;;;;;;;2.70;2.10;;;;;;;18.63;53.40;101265.09;5135543;27;20054;-60
2022/10/14 05:37:41;;;;;;;2.67;1.85;;;;;;;18.55;53.53;101245.34;5133941;27;20088;-60
2022/10/14 05:40:07;;;;;;;2.42;1.95;;;;;;;18.63;53.55;101261.56;5133326;27;20022;-60
2022/10/14 05:42:33;;;;;;;2.75;2.40;;;;;;;18.63;53.71;101259.69;5132970;27;20051;-60
2022/10/14 05:44:58;;;;;;;1.92;1.67;;;;;;;18.63;53.54;101258.84;5135129;27;20072;-59
2022/10/14 05:47:23;;;;;;;4.07;2.08;;;;;;;18.63;53.74;101248.09;5133603;27;20019;-60
2022/10/14 05:49:48;;;;;;;2.58;1.88;;;;;;;18.63;53.63;101242.69;5133713;27;20023;-60
2022/10/14 05:52:14;;;;;;;2.78;1.88;;;;;;;18.63;53.67;101248.09;5135439;27;20494;-60
2022/10/14 05:54:39;;;;;;;3.30;2.00;;;;;;;18.36;53.57;101201.47;5132017;27;20039;-60
2022/10/14 05:57:04;;;;;;;2.40;2.20;;;;;;;18.63;53.75;101246.22;5123807;28;20123;-58
2022/10/14 05:59:32;;;;;;;2.30;1.90;;;;;;;18.62;53.77;101241.84;5133576;27;20019;-59
2022/10/14 06:01:57;;;;;;;2.30;2.10;;;;;;;18.62;53.61;101236.47;5134653;27;20026;-57
2022/10/14 06:04:22;;;;;;;3.40;2.20;;;;;;;18.59;54.06;101228.69;5132582;27;20023;-59
2022/10/14 06:06:47;;;;;;;2.65;2.22;;;;;;;18.61;53.88;101234.78;5134143;27;20035;-59
2022/10/14 06:09:13;;;;;;;5.13;2.55;;;;;;;18.62;53.98;101241.00;5132126;27;20559;-61
2022/10/14 06:11:38;;;;;;;2.42;2.08;;;;;;;18.61;53.68;101228.56;5132998;27;20030;-60
2022/10/14 06:14:04;;;;;;;3.20;2.30;;;;;;;18.61;53.99;101231.25;5134043;27;20051;-59
2022/10/14 06:16:29;;;;;;;2.80;2.20;;;;;;;18.60;54.19;101235.78;5133152;27;20027;-60
2022/10/14 06:18:54;;;;;;;2.72;2.25;;;;;;;18.60;54.14;101235.78;5133527;28;20028;-60
2022/10/14 06:21:20;;;;;;;2.97;2.17;;;;;;;18.61;54.08;101236.63;5132947;28;20054;-60
2022/10/14 06:23:45;;;;;;;2.85;2.45;;;;;;;18.62;53.90;101227.56;5134805;28;20105;-59
2022/10/14 06:26:10;;;;;;;2.80;2.42;;;;;;;18.61;53.89;101224.00;5132795;28;20019;-60
2022/10/14 06:28:36;;;;;;;3.75;2.42;;;;;;;18.61;53.84;101223.19;5133766;28;20019;-60
2022/10/14 06:31:02;;;;;;;2.60;2.30;;;;;;;18.60;53.95;101216.91;5134400;28;20023;-59
2022/10/14 06:33:28;;;;;;;4.50;2.30;;;;;;;18.41;53.80;101187.53;5132871;27;20372;-60
2022/10/14 06:35:54;;;;;;;3.17;2.47;;;;;;;18.61;53.79;101229.41;5134403;27;20090;-59
2022/10/14 06:38:19;;;;;;;3.70;3.00;;;;;;;18.61;53.96;101225.88;5133722;28;20061;-59
2022/10/14 06:40:44;;;;;;;3.08;2.67;;;;;;;18.61;53.89;101213.25;5132639;28;20042;-60
2022/10/14 06:43:09;;;;;;;2.75;2.20;;;;;;;18.61;53.82;101212.41;5133044;28;20031;-60
2022/10/14 06:45:35;;;;;;;3.42;2.47;;;;;;;18.61;54.00;101204.31;5123889;28;20024;-61
2022/10/14 06:48:00;;;;;;;2.63;2.10;;;;;;;18.61;53.89;101202.47;5124000;28;20027;-61
2022/10/14 06:50:26;;;;;;;3.60;2.53;;;;;;;18.62;53.91;101203.31;5123580;28;20039;-61
2022/10/14 06:52:51;;;;;;;3.15;2.45;;;;;;;18.61;53.76;101194.41;5123630;28;20047;-60
2022/10/14 06:55:16;;;;;;;2.90;2.50;;;;;;;18.58;53.71;101200.09;5126308;28;20039;-61
2022/10/14 06:57:42;;;;;;;3.80;2.40;;;;;;;18.56;53.57;101196.69;5142708;28;20039;-60
2022/10/14 07:00:08;;;;;;;3.40;2.55;;;;;;;18.60;53.60;101203.44;5143800;27;20063;-60
2022/10/14 07:02:34;;;;;;;3.45;2.63;;;;;;;18.61;53.51;101201.63;5144405;28;20027;-62
2022/10/14 07:04:59;;;;;;;2.83;2.28;;;;;;;18.59;53.74;101195.53;5125456;28;20031;-60
2022/10/14 07:07:24;;;;;;;5.78;2.72;;;;;;;18.59;53.70;101201.78;5144258;27;20044;-60
2022/10/14 07:09:50;;;;;;;7.28;3.15;;;;;;;18.59;53.87;101190.16;5132669;28;20119;-60
2022/10/14 07:12:15;;;;;;;9.02;3.30;;;;;;;18.57;54.24;101193.03;5128863;28;20030;-60
2022/10/14 07:14:40;;;;;;;5.45;3.42;;;;;;;18.57;54.16;101187.63;5126023;28;20028;-60
2022/10/14 07:17:07;;;;;;;8.48;3.28;;;;;;;18.52;53.98;101179.19;5123333;28;20051;-61
2022/10/14 07:19:32;;;;;;;5.20;3.15;;;;;;;18.51;53.86;101172.09;5123543;28;20039;-61
2022/10/14 07:21:58;;;;;;;5.78;3.67;;;;;;;18.59;54.01;101190.16;5123250;28;20024;-61
2022/10/14 07:24:23;;;;;;;7.00;3.42;;;;;;;18.60;53.71;101190.00;5123145;28;20061;-61
2022/10/14 07:26:48;;;;;;;6.80;3.33;;;;;;;18.58;53.82;101186.63;5123012;28;20031;-61
2022/10/14 07:29:13;;;;;;;5.30;3.25;;;;;;;18.60;53.68;101197.22;5123148;28;20036;-61
2022/10/14 07:31:39;;;;;;;4.80;3.45;;;;;;;18.52;54.01;101178.31;5125995;28;20027;-61
2022/10/14 07:34:04;;;;;;;5.30;3.55;;;;;;;18.52;53.98;101187.28;5126874;28;20031;-61
2022/10/14 07:36:29;;;;;;;6.22;3.67;;;;;;;18.50;53.96;101167.72;5126833;28;20600;-61
2022/10/14 07:38:54;;;;;;;8.23;3.35;;;;;;;18.56;53.86;101168.94;5126808;27;20073;-60
2022/10/14 07:41:22;;;;;;;9.65;3.45;;;;;;;18.60;53.96;101181.06;5143440;27;20455;-61
2022/10/14 07:43:50;;;;;;;6.05;3.85;;;;;;;18.59;53.74;101180.22;5126693;28;20596;-61
2022/10/14 07:46:27;;;;;;;6.30;3.63;;;;;;;18.60;53.99;101191.84;5126811;28;20015;-61
2022/10/14 07:48:52;;;;;;;4.78;3.03;;;;;;;18.60;53.76;101184.59;5125560;28;20035;-61
2022/10/14 07:51:17;;;;;;;7.03;3.78;;;;;;;18.60;53.54;101183.75;5126113;28;20039;-61
2022/10/14 07:53:42;;;;;;;7.40;3.45;;;;;;;18.59;53.94;101174.84;5126391;28;20069;-61
2022/10/14 07:56:08;;;;;;;4.88;3.83;;;;;;;18.60;54.28;101176.53;5126374;28;20380;-61
2022/10/14 07:58:33;;;;;;;6.05;3.47;;;;;;;18.60;53.88;101179.22;5126279;28;20032;-61
2022/10/14 08:00:58;;;;;;;6.07;3.53;;;;;;;18.62;54.10;101179.06;5126447;27;20028;-61
2022/10/14 08:03:24;;;;;;;4.50;3.20;;;;;;;18.59;53.84;101179.38;5126418;28;20393;-61
2022/10/14 08:05:50;;;;;;;5.28;3.28;;;;;;;18.59;53.66;101171.31;5141032;27;20031;-61
2022/10/14 08:08:16;;;;;;;6.10;3.63;;;;;;;18.51;53.72;101163.19;5146710;27;20023;-61
2022/10/14 08:10:42;;;;;;;7.57;3.60;;;;;;;18.56;54.00;101161.69;5146802;27;20026;-61
2022/10/14 08:13:07;;;;;;;6.15;3.50;;;;;;;18.58;53.70;101162.38;5146549;27;20094;-60
2022/10/14 08:15:37;;;;;;;8.77;4.10;;;;;;;18.63;53.96;101173.53;5146544;27;20030;-66
2022/10/14 08:18:03;;;;;;;5.15;3.70;;;;;;;18.64;53.85;101167.13;5126084;27;20016;-61
2022/10/14 08:20:28;;;;;;;5.78;3.45;;;;;;;18.64;53.93;101167.13;5127123;27;20028;-62
2022/10/14 08:22:54;;;;;;;5.38;3.08;;;;;;;18.62;54.30;101157.53;5125589;27;20020;-62
2022/10/14 08:25:20;;;;;;;7.18;3.72;;;;;;;18.66;54.28;101161.59;5125603;27;20585;-60
2022/10/14 08:27:49;;;;;;;6.70;4.03;;;;;;;18.55;54.39;101143.00;5125303;28;20053;-61
2022/10/14 08:30:14;;;;;;;;;;;;;;;18.66;54.26;101166.97;5126209;28;20027;-61
2022/10/14 08:32:39;;;;;;;4.22;3.55;;;;;;;18.65;54.09;101155.38;5125796;27;19919;-61
2022/10/14 08:35:05;;;;;;;7.20;3.97;;;;;;;18.64;54.25;101144.72;5128040;27;20512;-62
2022/10/14 08:37:30;;;;;;;6.40;3.30;;;;;;;18.62;54.28;101141.38;5135002;27;20685;-62
2022/10/14 08:39:55;;;;;;;6.78;3.42;;;;;;;18.63;54.24;101143.91;5135663;27;20102;-62
2022/10/14 08:42:43;;;;;;;3.97;2.92;;;;;;;18.46;54.19;101113.34;5133789;27;20039;-62
2022/10/14 08:45:18;;;;;;;7.90;3.55;;;;;;;18.60;53.85;101137.97;5140206;27;20026;-62
2022/10/14 08:47:45;;;;;;;5.65;3.30;;;;;;;18.67;54.13;101145.25;5141754;27;20052;-61
2022/10/14 08:50:25;;;;;;;5.03;2.90;;;;;;;18.68;54.10;101149.63;5124403;28;20031;-62
2022/10/14 08:52:55;;;;;;;5.53;3.15;;;;;;;18.67;54.01;101134.50;5141131;27;20028;-62
2022/10/14 08:55:38;;;;;;;4.68;3.10;;;;;;;18.70;53.80;101141.44;5125326;28;20055;-62
2022/10/14 08:58:30;;;;;;;5.15;3.20;;;;;;;18.70;53.78;101144.13;5125106;28;20023;-62
2022/10/14 09:00:58;;;;;;;4.20;2.95;;;;;;;18.72;54.03;101137.56;5125448;28;20019;-62
2022/10/14 09:03:31;;;;;;;3.00;2.60;;;;;;;18.73;53.76;101130.31;5124382;28;20019;-62
2022/10/14 09:06:00;;;;;;;4.00;3.13;;;;;;;18.73;53.87;101124.94;5127418;27;20030;-62
2022/10/14 09:08:55;;;;;;;4.57;3.15;;;;;;;18.75;53.85;101122.94;5144427;27;20019;-62
2022/10/14 09:11:23;;;;;;;3.92;2.85;;;;;;;18.75;53.86;101122.94;5132487;27;20057;-62
2022/10/14 09:13:51;;;;;;;5.15;2.92;;;;;;;18.75;53.72;101119.41;5138681;27;20383;-62
2022/10/14 09:16:22;;;;;;;3.67;2.50;;;;;;;18.74;53.69;101126.66;5145562;27;20023;-62
2022/10/14 09:19:01;;;;;;;4.63;3.05;;;;;;;18.73;53.94;101119.56;5144486;27;20049;-62
2022/10/14 09:21:38;;;;;;;4.03;3.00;;;;;;;18.75;53.86;101122.94;5145387;27;20026;-61
2022/10/14 09:24:15;;;;;;;4.78;3.22;;;;;;;18.63;53.75;101106.19;5145632;27;20019;-61
2022/10/14 09:26:46;;;;;;;5.00;2.83;;;;;;;18.75;53.59;101124.78;5143841;27;20328;-61
2022/10/14 09:29:31;;;;;;;6.03;3.05;;;;;;;18.76;53.96;101123.78;5145400;27;20510;-61
2022/10/14 09:32:00;;;;;;;3.55;2.53;;;;;;;18.76;53.64;101126.47;5145365;27;20047;-61
2022/10/14 09:34:33;;;;;;;6.97;3.00;;;;;;;18.77;54.00;101120.06;5144210;27;20034;-61
2022/10/14 09:37:07;;;;;;;4.22;2.90;;;;;;;18.77;53.77;101117.38;5145269;27;20157;-61
2022/10/14 09:39:35;;;;;;;4.22;2.60;;;;;;;18.68;53.63;101114.63;5141690;27;20031;-61
2022/10/14 09:42:01;;;;;;;3.83;2.40;;;;;;;18.69;54.01;101102.91;5124752;28;20027;-61
2022/10/14 09:44:26;;;;;;;5.78;2.60;;;;;;;18.80;53.53;101114.38;5129177;27;20058;-62
2022/10/14 09:46:57;;;;;;;7.93;2.70;;;;;;;18.72;53.85;101099.84;5143943;27;20023;-61
2022/10/14 09:49:28;;;;;;;3.38;2.60;;;;;;;18.81;53.77;101108.81;5143745;27;20019;-60
2022/10/14 09:51:55;;;;;;;5.35;2.67;;;;;;;18.82;54.01;101113.22;5144834;27;20631;-60
2022/10/14 09:54:24;;;;;;;3.70;2.80;;;;;;;18.82;53.83;101109.66;5132112;27;20066;-61
2022/10/14 09:56:49;;;;;;;6.55;2.65;;;;;;;18.63;53.81;101084.66;5121879;28;20051;-60
2022/10/14 09:59:16;;;;;;;4.75;2.58;;;;;;;18.83;54.13;101106.81;5123965;27;20038;-60
2022/10/14 10:01:49;;;;;;;6.75;2.95;;;;;;;18.84;53.62;101105.78;5139058;27;20035;-60
2022/10/14 10:04:29;;;;;;;4.88;2.40;;;;;;;18.84;53.77;101096.88;5143502;27;20042;-60
2022/10/14 10:06:55;;;;;;;3.60;2.42;;;;;;;18.64;53.72;101063.94;5133674;27;20031;-60
2022/10/14 10:09:20;;;;;;;4.53;2.53;;;;;;;18.86;53.77;101103.81;5122047;28;20028;-60
2022/10/14 10:11:46;;;;;;;4.03;2.40;;;;;;;18.89;53.68;101086.44;5131798;27;20047;-60
2022/10/14 10:14:31;;;;;;;4.15;2.50;;;;;;;18.90;53.86;101080.91;5141101;27;20027;-60
2022/10/14 10:17:06;;;;;;;3.63;2.22;;;;;;;18.95;53.77;101092.03;5125050;28;20038;-60
2022/10/14 10:19:33;;;;;;;3.88;2.53;;;;;;;19.00;53.91;101088.00;5125821;28;20016;-61
2022/10/14 10:22:26;;;;;;;8.45;3.13;;;;;;;19.03;53.71;101088.53;5144576;27;20024;-59
2022/10/14 10:25:12;;;;;;;4.25;2.53;;;;;;;19.06;53.62;101084.63;5141315;27;20038;-59
2022/10/14 10:27:39;;;;;;;5.30;2.28;;;;;;;19.07;53.68;101070.16;5133421;27;20023;-60
2022/10/14 10:30:16;;;;;;;4.60;3.00;;;;;;;19.08;53.83;101069.16;5144574;27;20058;-60
2022/10/14 10:33:02;;;;;;;3.33;2.20;;;;;;;19.10;53.88;101064.44;5133869;27;20028;-60
2022/10/14 10:35:46;;;;;;;5.50;2.30;;;;;;;19.11;53.59;101058.88;5122529;28;20027;-61
2022/10/14 10:38:22;;;;;;;7.13;3.10;;;;;;;19.12;53.86;101057.03;5122542;28;20024;-61
2022/10/14 10:40:56;;;;;;;4.63;2.38;;;;;;;19.14;53.63;101063.09;5133860;28;20023;-59
2022/10/14 10:43:36;;;;;;;4.68;2.33;;;;;;;19.10;53.61;101053.66;5123320;28;20030;-59
2022/10/14 10:46:17;;;;;;;3.47;2.25;;;;;;;19.14;53.89;101061.25;5124181;28;20079;-59
2022/10/14 10:48:46;;;;;;;10.00;2.83;;;;;;;19.15;54.11;101054.00;5123858;28;20076;-60
2022/10/14 10:51:12;;;;;;;4.03;3.05;;;;;;;19.15;53.95;101051.28;5123670;28;20028;-60
2022/10/14 10:53:59;;;;;;;6.28;2.47;;;;;;;19.15;53.74;101052.13;5123646;28;20023;-60
2022/10/14 10:56:33;;;;;;;2.78;2.00;;;;;;;19.17;53.92;101043.91;5129011;28;20035;-60
2022/10/14 10:59:29;;;;;;;3.55;2.08;;;;;;;19.18;54.19;101040.19;5123247;28;20031;-60
2022/10/14 11:02:14;;;;;;;4.10;2.50;;;;;;;19.18;54.18;101042.88;5123163;28;20517;-59
2022/10/14 11:04:52;;;;;;;4.70;2.50;;;;;;;19.18;53.80;101043.72;5123681;28;20456;-60
2022/10/14 11:13:10;;;;;;;4.43;2.03;;;;;;;19.19;53.98;101040.00;5134387;27;20066;-59
2022/10/14 11:15:54;;;;;;;6.90;2.60;;;;;;;19.18;54.06;101024.84;5146928;27;20022;-59
2022/10/14 11:18:46;;;;;;;4.88;2.10;;;;;;;19.18;54.22;101030.25;5147950;27;20027;-59
2022/10/14 11:21:17;;;;;;;4.75;2.50;;;;;;;19.18;54.14;101030.25;5147906;27;20019;-59
2022/10/14 11:23:49;;;;;;;3.72;2.25;;;;;;;19.19;54.09;101014.91;5146985;27;20027;-59
2022/10/14 11:26:52;;;;;;;3.67;2.15;;;;;;;19.19;53.88;101012.22;5148096;27;20026;-59
2022/10/14 11:29:39;;;;;;;3.92;2.35;;;;;;;19.19;53.91;101006.81;5146145;27;20023;-59
2022/10/14 11:32:23;;;;;;;3.72;1.98;;;;;;;19.20;54.14;101011.22;5127267;28;20027;-59
2022/10/14 11:35:02;;;;;;;3.13;2.28;;;;;;;19.21;53.92;101010.22;5126736;28;20559;-61
2022/10/14 11:38:01;;;;;;;3.47;2.42;;;;;;;19.21;54.03;101012.91;5126798;28;20149;-59
2022/10/14 11:40:35;;;;;;;3.58;2.03;;;;;;;19.20;54.17;101003.97;5130785;27;20093;-60
2022/10/14 11:43:21;;;;;;;4.00;2.17;;;;;;;19.22;53.99;100987.63;5147175;27;20043;-60